Mullan, Idaho
Current Conditions -  °F | °C
As of 12:12 PM on Friday 24 Oct 2014 (Local Time) from KMLP Reporting Station
Overcast Overcast  
Wind Chill: 37°   Ceiling: 2200
Heat Index: 37°   Visibility: 10mi
Dew Point: 33°   Wind: 3mph
Humidity: 86%   Direction: NA
Pressure: 30.1"   Gusts: NA
Location:  47.47°N, 115.8°W
Report Text: KMLP 241912Z AUTO VRB03KT 10SM SCT013 OVC022 03/01 A3010 RMK AO2 T00280006
Loading
Personal Weather Stations






























Interactive Weather Map
Tropical Storm Tracking
New forecast layout! Learn more

10-Day Weather Forecast

Advertisements
Track Severe Weather on mobile